Time;durP1;ratioP1;P1;durP2;ratioP2;P2;SDS_P1;SDS_P2;PMS_P1;PMS_P2;Temp;Humidity;BMP_temperature;BMP_pressure;BME280_temperature;BME280_humidity;BME280_pressure;Samples;Min_cycle;Max_cycle;Signal;HPM_P1;HPM_P2
2023/08/02 00:01:51;;;;;;;4.13;4.13;;;15.80;99.90;;;;;;5024372;28;20512;-68
2023/08/02 00:04:19;;;;;;;4.03;4.03;;;15.80;99.90;;;;;;5022992;28;21054;-68
2023/08/02 00:06:46;;;;;;;4.20;4.20;;;15.80;99.90;;;;;;5022165;28;20574;-69
2023/08/02 00:09:14;;;;;;;4.10;4.10;;;15.70;99.90;;;;;;5023949;28;20816;-70
2023/08/02 00:11:42;;;;;;;4.40;4.40;;;15.70;99.90;;;;;;5025446;28;20531;-68
2023/08/02 00:14:09;;;;;;;4.80;4.70;;;15.60;99.90;;;;;;5028997;28;21043;-70
2023/08/02 00:16:36;;;;;;;4.40;4.30;;;15.60;99.90;;;;;;5016178;28;20493;-69
2023/08/02 00:19:03;;;;;;;4.37;4.17;;;15.50;99.90;;;;;;5025522;28;20469;-69
2023/08/02 00:21:30;;;;;;;3.87;3.87;;;15.50;99.90;;;;;;5028636;28;20448;-67
2023/08/02 00:23:58;;;;;;;3.60;3.60;;;15.50;99.90;;;;;;5024753;28;20460;-68
2023/08/02 00:26:28;;;;;;;3.53;3.53;;;15.40;99.90;;;;;;5017996;28;20508;-68
2023/08/02 00:28:55;;;;;;;3.53;3.53;;;15.40;99.90;;;;;;5028624;28;20461;-67
2023/08/02 00:31:22;;;;;;;3.43;3.43;;;15.40;99.90;;;;;;5028432;28;20456;-68
2023/08/02 00:33:51;;;;;;;3.13;3.13;;;15.40;99.90;;;;;;5022781;28;20499;-69
2023/08/02 00:36:18;;;;;;;3.20;3.20;;;15.30;99.90;;;;;;5029264;28;20468;-69
2023/08/02 00:38:44;;;;;;;3.47;3.47;;;15.30;99.90;;;;;;5025712;28;20475;-67
2023/08/02 00:41:11;;;;;;;3.60;3.40;;;15.30;99.90;;;;;;5021652;28;20469;-67
2023/08/02 00:43:45;;;;;;;3.00;3.00;;;15.30;99.90;;;;;;5026722;28;20464;-68
2023/08/02 00:46:13;;;;;;;3.40;3.30;;;15.30;99.90;;;;;;5023321;28;20488;-69
2023/08/02 00:48:41;;;;;;;3.30;3.30;;;15.30;99.90;;;;;;5026556;28;20539;-68
2023/08/02 00:51:08;;;;;;;2.97;2.97;;;15.30;99.90;;;;;;5023682;28;21009;-69
2023/08/02 00:53:36;;;;;;;2.70;2.70;;;15.30;99.90;;;;;;5019460;28;20465;-69
2023/08/02 00:56:04;;;;;;;3.13;3.13;;;15.30;99.90;;;;;;5011385;28;20462;-70
2023/08/02 00:58:30;;;;;;;2.80;2.80;;;15.30;99.90;;;;;;5027421;28;20970;-69
2023/08/02 01:01:06;;;;;;;3.00;3.00;;;15.40;99.90;;;;;;5024236;28;20469;-68
2023/08/02 01:03:33;;;;;;;3.13;3.13;;;15.50;99.90;;;;;;5020541;28;20548;-69
2023/08/02 01:06:06;;;;;;;3.50;3.50;;;15.50;99.90;;;;;;5023821;28;20500;-68
2023/08/02 01:08:37;;;;;;;2.83;2.83;;;15.60;99.90;;;;;;5027882;28;20461;-69
2023/08/02 01:11:09;;;;;;;3.90;3.90;;;15.60;99.90;;;;;;5017363;28;20496;-69
2023/08/02 01:13:40;;;;;;;3.63;3.63;;;15.70;99.90;;;;;;5024410;28;20452;-68
2023/08/02 01:16:10;;;;;;;3.90;3.90;;;15.80;99.90;;;;;;5009675;28;20512;-69
2023/08/02 01:18:38;;;;;;;3.60;3.60;;;15.80;99.90;;;;;;5024941;28;20459;-69
2023/08/02 01:21:08;;;;;;;3.83;3.83;;;15.90;99.90;;;;;;5027763;28;20812;-69
2023/08/02 01:23:35;;;;;;;3.77;3.77;;;15.90;99.90;;;;;;5027846;28;20461;-69
2023/08/02 01:26:05;;;;;;;3.80;3.80;;;16.00;99.90;;;;;;5017433;28;20543;-68
2023/08/02 01:28:36;;;;;;;4.00;4.00;;;16.00;99.90;;;;;;5024638;28;20822;-67
2023/08/02 01:31:04;;;;;;;4.13;4.13;;;16.00;99.90;;;;;;5017848;28;20464;-68
2023/08/02 01:33:36;;;;;;;4.50;4.50;;;16.10;99.90;;;;;;5025270;28;20557;-70
2023/08/02 01:36:04;;;;;;;4.00;4.00;;;16.20;99.90;;;;;;5021438;28;20464;-70
2023/08/02 01:38:33;;;;;;;4.10;4.10;;;16.20;99.90;;;;;;5027449;28;20461;-69
2023/08/02 01:41:00;;;;;;;4.30;4.30;;;16.20;99.90;;;;;;5016104;28;20464;-70
2023/08/02 01:43:27;;;;;;;4.43;4.43;;;16.20;99.90;;;;;;5026338;28;20461;-68
2023/08/02 01:45:54;;;;;;;4.53;4.53;;;16.30;99.90;;;;;;5024368;28;20991;-69
2023/08/02 01:48:22;;;;;;;4.40;4.40;;;16.30;99.90;;;;;;5012490;28;20457;-69
2023/08/02 01:50:49;;;;;;;5.30;5.20;;;16.30;99.90;;;;;;5014588;28;20504;-68
2023/08/02 01:53:16;;;;;;;5.20;5.10;;;16.30;99.90;;;;;;5027003;28;20948;-71
2023/08/02 01:55:44;;;;;;;5.37;5.27;;;16.30;99.90;;;;;;5027109;28;20463;-70
2023/08/02 01:58:10;;;;;;;4.97;4.87;;;16.40;99.90;;;;;;5020133;28;20468;-69
2023/08/02 02:00:37;;;;;;;5.00;4.90;;;16.40;99.90;;;;;;5026215;28;20467;-69
2023/08/02 02:03:04;;;;;;;4.60;4.60;;;16.40;99.90;;;;;;5027336;28;20468;-69
2023/08/02 02:05:31;;;;;;;4.80;4.80;;;16.40;99.90;;;;;;5026919;28;20480;-69
2023/08/02 02:07:58;;;;;;;4.70;4.70;;;16.30;99.90;;;;;;5022040;28;20970;-70
2023/08/02 02:10:24;;;;;;;5.63;5.53;;;16.30;99.90;;;;;;5022899;28;20947;-69
2023/08/02 02:12:52;;;;;;;5.30;5.20;;;16.30;99.90;;;;;;5024028;28;20487;-69
2023/08/02 02:15:21;;;;;;;5.40;5.30;;;16.40;99.90;;;;;;5023608;28;20515;-71
2023/08/02 02:17:47;;;;;;;5.70;5.60;;;16.40;99.90;;;;;;5019842;28;20465;-68
2023/08/02 02:20:15;;;;;;;5.90;5.80;;;16.50;99.90;;;;;;5027258;28;20457;-69
2023/08/02 02:22:42;;;;;;;5.80;5.70;;;16.50;99.90;;;;;;5023791;28;20825;-69
2023/08/02 02:25:10;;;;;;;5.90;5.80;;;16.50;99.90;;;;;;5028398;28;20461;-69
2023/08/02 02:27:36;;;;;;;5.90;5.80;;;16.40;99.90;;;;;;5020272;28;20485;-70
2023/08/02 02:30:05;;;;;;;5.70;5.60;;;16.40;99.90;;;;;;5021784;28;20461;-70
2023/08/02 02:32:33;;;;;;;5.60;5.50;;;16.40;99.90;;;;;;5031043;28;20544;-69
2023/08/02 02:34:59;;;;;;;5.90;5.80;;;16.40;99.90;;;;;;5026194;28;21143;-70
2023/08/02 02:37:26;;;;;;;6.37;6.27;;;16.40;99.90;;;;;;5019558;28;20781;-69
2023/08/02 02:39:53;;;;;;;5.80;5.70;;;16.50;99.90;;;;;;5031215;28;20728;-70
2023/08/02 02:42:19;;;;;;;5.60;5.50;;;16.50;99.90;;;;;;5031253;28;20469;-69
2023/08/02 02:44:48;;;;;;;5.90;5.80;;;16.50;99.90;;;;;;5025236;28;20980;-69
2023/08/02 02:47:16;;;;;;;6.30;6.20;;;16.50;99.90;;;;;;5027298;28;20496;-69
2023/08/02 02:49:43;;;;;;;6.10;6.00;;;16.50;99.90;;;;;;5030453;28;20452;-70
2023/08/02 02:52:10;;;;;;;6.10;6.00;;;16.50;99.90;;;;;;5023583;28;20460;-70
2023/08/02 02:54:38;;;;;;;6.50;6.40;;;16.40;99.90;;;;;;5027380;28;20555;-69
2023/08/02 02:57:06;;;;;;;6.60;6.50;;;16.40;99.90;;;;;;5021438;28;20465;-70
2023/08/02 02:59:33;;;;;;;6.80;6.70;;;16.40;99.90;;;;;;5026057;28;20533;-70
2023/08/02 03:02:00;;;;;;;6.60;6.50;;;16.40;99.90;;;;;;5029269;28;20469;-71
2023/08/02 03:04:31;;;;;;;6.27;6.17;;;16.40;99.90;;;;;;5018702;28;20489;-68
2023/08/02 03:06:59;;;;;;;6.30;6.20;;;16.30;99.90;;;;;;5021088;28;20485;-69
2023/08/02 03:09:25;;;;;;;6.60;6.50;;;16.40;99.90;;;;;;5028134;28;20472;-69
2023/08/02 03:11:53;;;;;;;6.30;6.20;;;16.30;99.90;;;;;;5026985;28;20468;-70
2023/08/02 03:14:19;;;;;;;7.33;7.23;;;16.30;99.90;;;;;;5030596;28;20453;-69
2023/08/02 03:16:46;;;;;;;7.23;7.13;;;16.20;99.90;;;;;;5028009;28;20849;-70
2023/08/02 03:19:13;;;;;;;6.90;6.80;;;16.20;99.90;;;;;;5027385;28;20838;-70
2023/08/02 03:21:43;;;;;;;6.80;6.70;;;16.20;99.90;;;;;;5022844;28;20472;-69
2023/08/02 03:24:10;;;;;;;6.60;6.50;;;16.20;99.90;;;;;;5018835;28;20960;-69
2023/08/02 03:26:36;;;;;;;6.63;6.53;;;16.20;99.90;;;;;;5021557;28;20849;-69
2023/08/02 03:29:03;;;;;;;7.00;6.90;;;16.20;99.90;;;;;;5029917;28;20834;-69
2023/08/02 03:31:30;;;;;;;6.77;6.67;;;16.20;99.90;;;;;;5025729;28;20837;-70
2023/08/02 03:33:56;;;;;;;7.00;6.90;;;16.20;99.90;;;;;;5023614;28;20472;-68
2023/08/02 03:36:23;;;;;;;6.73;6.63;;;16.10;99.90;;;;;;5016687;28;20474;-70
2023/08/02 03:38:51;;;;;;;6.40;6.30;;;16.10;99.90;;;;;;5026144;28;20539;-69
2023/08/02 03:41:19;;;;;;;6.50;6.40;;;16.10;99.90;;;;;;5026637;28;20544;-68
2023/08/02 03:43:45;;;;;;;6.13;6.03;;;16.10;99.90;;;;;;5030097;28;20507;-69
2023/08/02 03:46:12;;;;;;;6.20;6.10;;;16.10;99.90;;;;;;5020413;28;20473;-67
2023/08/02 03:48:39;;;;;;;6.40;6.30;;;16.10;99.90;;;;;;5025544;28;20468;-70
2023/08/02 03:51:06;;;;;;;6.37;6.27;;;16.00;99.90;;;;;;5025294;28;20468;-70
2023/08/02 03:53:33;;;;;;;6.10;6.00;;;16.00;99.90;;;;;;5025439;28;20465;-69
2023/08/02 03:56:02;;;;;;;6.03;5.93;;;16.10;99.90;;;;;;5018560;28;20952;-68
2023/08/02 03:58:29;;;;;;;6.20;6.10;;;16.10;99.90;;;;;;5024423;28;20483;-70
2023/08/02 04:00:56;;;;;;;6.20;6.10;;;16.10;99.90;;;;;;5021675;28;20548;-70
2023/08/02 04:03:22;;;;;;;5.70;5.60;;;16.10;99.90;;;;;;5029277;28;20488;-68
2023/08/02 04:05:50;;;;;;;5.40;5.30;;;16.10;99.90;;;;;;5028370;28;20481;-69
2023/08/02 04:08:17;;;;;;;5.10;5.07;;;16.10;99.90;;;;;;5026189;28;20495;-68
2023/08/02 04:10:43;;;;;;;5.10;5.00;;;16.10;99.90;;;;;;5026069;28;20460;-68
2023/08/02 04:13:11;;;;;;;5.10;5.00;;;16.00;99.90;;;;;;5020806;28;20483;-68
2023/08/02 04:15:39;;;;;;;5.80;5.70;;;16.00;99.90;;;;;;5018135;28;20479;-68
2023/08/02 04:18:05;;;;;;;6.33;6.23;;;15.90;99.90;;;;;;5021498;28;20466;-69
2023/08/02 04:20:32;;;;;;;8.30;8.20;;;15.90;99.90;;;;;;5028444;28;20530;-68
2023/08/02 04:22:59;;;;;;;9.70;9.50;;;15.80;99.90;;;;;;5029035;28;20696;-69
2023/08/02 04:25:28;;;;;;;11.13;10.83;;;15.70;99.90;;;;;;5029000;28;20494;-68
2023/08/02 04:27:55;;;;;;;10.70;10.40;;;15.80;99.90;;;;;;5018467;28;20503;-69
2023/08/02 04:30:24;;;;;;;11.23;10.93;;;15.70;99.90;;;;;;5028341;28;20471;-68
2023/08/02 04:32:51;;;;;;;11.57;11.27;;;15.70;99.90;;;;;;5018449;28;20554;-67
2023/08/02 04:35:19;;;;;;;11.50;11.20;;;15.70;99.90;;;;;;5028458;28;20469;-69
2023/08/02 04:37:46;;;;;;;11.70;11.40;;;15.70;99.90;;;;;;5028561;28;20469;-69
2023/08/02 04:40:13;;;;;;;12.00;11.60;;;15.70;99.90;;;;;;5020811;28;20580;-67
2023/08/02 04:42:41;;;;;;;11.40;11.10;;;15.60;99.90;;;;;;5024024;28;20475;-69
2023/08/02 04:45:10;;;;;;;11.63;11.33;;;15.60;99.90;;;;;;5027033;28;20484;-68
2023/08/02 04:47:38;;;;;;;11.53;11.23;;;15.70;99.90;;;;;;5027963;28;20497;-67
2023/08/02 04:50:07;;;;;;;11.60;11.30;;;15.60;99.90;;;;;;5019165;28;20474;-68
2023/08/02 04:52:34;;;;;;;12.60;12.20;;;15.70;99.90;;;;;;5024061;28;20474;-68
2023/08/02 04:55:02;;;;;;;12.40;12.00;;;15.70;99.90;;;;;;5025354;28;20464;-69
2023/08/02 04:57:30;;;;;;;12.37;11.97;;;15.70;99.90;;;;;;5021897;28;20474;-67
2023/08/02 04:59:57;;;;;;;12.40;12.00;;;15.70;99.90;;;;;;5027970;28;20457;-68
2023/08/02 05:02:26;;;;;;;12.90;12.50;;;15.70;99.90;;;;;;5020702;28;20504;-68
2023/08/02 05:04:54;;;;;;;12.83;12.43;;;15.70;99.90;;;;;;5015284;28;20488;-68
2023/08/02 05:07:21;;;;;;;12.77;12.37;;;15.70;99.90;;;;;;5019319;28;20500;-68
2023/08/02 05:09:47;;;;;;;11.97;11.67;;;15.70;99.90;;;;;;5019204;28;20506;-69
2023/08/02 05:12:14;;;;;;;12.20;11.83;;;15.60;99.90;;;;;;5015010;28;20461;-68
2023/08/02 05:14:41;;;;;;;11.97;11.67;;;15.60;99.90;;;;;;5019384;28;20556;-69
2023/08/02 05:17:10;;;;;;;11.30;11.00;;;15.60;99.90;;;;;;5027351;28;20453;-69
2023/08/02 05:19:37;;;;;;;10.43;10.17;;;15.60;99.90;;;;;;5025075;28;20760;-69
2023/08/02 05:22:06;;;;;;;9.70;9.50;;;15.60;99.90;;;;;;5018589;28;20986;-69
2023/08/02 05:24:34;;;;;;;10.23;9.93;;;15.50;99.90;;;;;;5026026;28;20453;-68
2023/08/02 05:27:01;;;;;;;9.80;9.60;;;15.60;99.90;;;;;;5027149;28;20551;-67
2023/08/02 05:29:29;;;;;;;9.23;9.03;;;15.60;99.90;;;;;;5028131;28;20807;-68
2023/08/02 05:31:56;;;;;;;10.70;10.30;;;15.60;99.90;;;;;;5016118;28;20492;-69
2023/08/02 05:34:24;;;;;;;8.77;8.57;;;15.60;99.90;;;;;;5020266;28;20456;-68
2023/08/02 05:36:51;;;;;;;8.50;8.30;;;15.60;99.90;;;;;;5025599;28;20472;-68
2023/08/02 05:39:19;;;;;;;8.20;8.00;;;15.70;99.90;;;;;;5019858;28;20988;-70
2023/08/02 05:41:46;;;;;;;8.50;8.30;;;15.70;99.90;;;;;;5017173;28;21357;-69
2023/08/02 05:44:13;;;;;;;9.17;8.97;;;15.70;99.90;;;;;;5013622;28;20468;-68
2023/08/02 05:46:41;;;;;;;8.33;8.13;;;15.80;99.90;;;;;;5015429;28;20469;-69
2023/08/02 05:49:09;;;;;;;7.83;7.63;;;15.70;99.90;;;;;;5021633;28;20455;-68
2023/08/02 05:51:36;;;;;;;7.00;6.90;;;15.70;99.90;;;;;;5026012;28;20548;-68
2023/08/02 05:54:03;;;;;;;6.60;6.50;;;15.70;99.90;;;;;;5020820;28;20459;-70
2023/08/02 05:56:31;;;;;;;6.60;6.50;;;15.70;99.90;;;;;;5023367;28;20459;-70
2023/08/02 05:58:58;;;;;;;7.77;7.57;;;15.80;99.90;;;;;;5019561;28;20977;-68
2023/08/02 06:01:26;;;;;;;6.60;6.50;;;15.80;99.90;;;;;;5026799;28;20967;-68
2023/08/02 06:03:53;;;;;;;7.63;7.43;;;15.90;99.90;;;;;;5028009;28;20496;-70
2023/08/02 06:06:21;;;;;;;7.60;7.40;;;15.90;99.90;;;;;;5021463;28;20484;-68
2023/08/02 06:08:48;;;;;;;9.03;7.27;;;15.90;99.90;;;;;;5017386;28;20500;-70
2023/08/02 06:11:15;;;;;;;7.50;7.30;;;15.90;99.90;;;;;;5020738;28;20468;-70
2023/08/02 06:13:44;;;;;;;6.60;6.40;;;15.90;99.90;;;;;;5022294;28;20465;-70
2023/08/02 06:16:11;;;;;;;6.70;6.50;;;15.90;99.90;;;;;;5019404;28;20519;-70
2023/08/02 06:18:37;;;;;;;6.73;6.53;;;15.90;99.90;;;;;;5025456;28;20530;-68
2023/08/02 06:21:06;;;;;;;6.60;6.40;;;16.00;99.90;;;;;;5019079;28;20467;-69
2023/08/02 06:23:33;;;;;;;9.33;8.73;;;16.00;99.90;;;;;;5021958;28;20522;-69
2023/08/02 06:26:01;;;;;;;6.30;6.10;;;16.00;99.90;;;;;;5023503;28;20491;-70
2023/08/02 06:28:28;;;;;;;7.27;7.07;;;16.00;99.90;;;;;;5021444;28;20495;-69
2023/08/02 06:30:56;;;;;;;6.53;6.23;;;16.10;99.90;;;;;;5023101;28;20476;-70
2023/08/02 06:33:24;;;;;;;6.93;6.63;;;16.10;99.90;;;;;;5018565;28;20802;-70
2023/08/02 06:35:50;;;;;;;6.43;6.23;;;16.10;99.90;;;;;;5023459;28;20465;-69
2023/08/02 06:38:18;;;;;;;6.50;6.30;;;16.00;99.90;;;;;;5020689;28;20465;-69
2023/08/02 06:40:45;;;;;;;5.97;5.77;;;16.00;99.90;;;;;;5023250;28;20469;-70
2023/08/02 06:43:12;;;;;;;5.67;5.50;;;16.00;99.90;;;;;;5020050;28;20470;-71
2023/08/02 06:45:45;;;;;;;5.80;5.60;;;16.00;99.90;;;;;;5020528;28;20464;-69
2023/08/02 06:48:13;;;;;;;6.67;6.37;;;16.00;99.90;;;;;;5021688;28;20497;-69
2023/08/02 06:50:39;;;;;;;6.17;5.87;;;16.10;99.90;;;;;;5018594;28;20538;-70
2023/08/02 06:53:07;;;;;;;6.27;5.97;;;16.10;99.90;;;;;;5021459;28;20468;-68
2023/08/02 06:55:34;;;;;;;5.33;5.23;;;16.10;99.90;;;;;;5018909;28;20940;-69
2023/08/02 06:58:01;;;;;;;5.60;5.40;;;16.20;99.90;;;;;;5027346;28;20471;-70
2023/08/02 07:00:30;;;;;;;5.30;5.10;;;16.20;99.90;;;;;;5025909;28;20871;-69
2023/08/02 07:02:59;;;;;;;5.60;5.40;;;16.30;99.90;;;;;;5018513;28;20851;-70
2023/08/02 07:05:29;;;;;;;5.70;5.50;;;16.40;99.90;;;;;;5016908;28;20485;-68
2023/08/02 07:07:56;;;;;;;5.93;5.73;;;16.40;99.90;;;;;;5028029;28;20481;-67
2023/08/02 07:10:23;;;;;;;8.40;5.73;;;16.40;99.90;;;;;;5029063;28;20470;-69
2023/08/02 07:12:50;;;;;;;6.27;5.97;;;16.40;99.90;;;;;;5014879;28;20473;-68
2023/08/02 07:15:18;;;;;;;6.13;5.93;;;16.50;99.90;;;;;;5026076;28;20484;-67
2023/08/02 07:17:45;;;;;;;7.03;6.73;;;16.60;99.90;;;;;;5019358;28;20450;-68
2023/08/02 07:20:18;;;;;;;7.07;6.67;;;16.70;99.90;;;;;;5024483;28;20453;-68
2023/08/02 07:22:46;;;;;;;6.63;6.27;;;16.70;99.90;;;;;;5010734;28;20469;-67
2023/08/02 07:25:13;;;;;;;6.67;6.47;;;16.80;99.90;;;;;;5022660;28;20457;-67
2023/08/02 07:27:40;;;;;;;6.83;6.50;;;16.80;99.90;;;;;;5016506;28;20489;-69
2023/08/02 07:30:09;;;;;;;5.80;5.60;;;16.80;99.90;;;;;;5026441;28;20460;-68
2023/08/02 07:32:36;;;;;;;5.93;5.73;;;17.00;99.90;;;;;;5017325;28;20460;-69
2023/08/02 07:35:03;;;;;;;5.97;5.73;;;17.30;99.90;;;;;;5020190;28;20889;-68
2023/08/02 07:37:30;;;;;;;5.80;5.60;;;17.50;99.90;;;;;;5015924;28;20468;-67
2023/08/02 07:39:58;;;;;;;5.70;5.50;;;17.40;99.90;;;;;;5013328;28;20480;-69
2023/08/02 07:42:25;;;;;;;5.83;5.63;;;17.40;99.90;;;;;;5024685;28;20642;-68
2023/08/02 07:45:03;;;;;;;6.70;6.50;;;17.50;99.90;;;;;;5025671;28;20472;-68
2023/08/02 07:47:31;;;;;;;6.70;6.50;;;17.60;99.90;;;;;;5020312;28;20453;-68
2023/08/02 07:49:57;;;;;;;6.83;6.53;;;17.60;99.90;;;;;;5024498;28;20472;-69
2023/08/02 07:52:24;;;;;;;6.60;6.40;;;17.60;99.90;;;;;;5026171;28;20461;-70
2023/08/02 07:54:53;;;;;;;7.20;6.90;;;17.70;99.90;;;;;;5020704;28;20466;-69
2023/08/02 07:57:23;;;;;;;7.90;7.60;;;17.80;99.90;;;;;;5016738;28;20491;-68
2023/08/02 07:59:49;;;;;;;8.83;8.33;;;17.80;99.90;;;;;;5018641;28;21026;-67
2023/08/02 08:02:16;;;;;;;8.40;7.80;;;18.00;99.90;;;;;;5025031;28;20498;-69
2023/08/02 08:04:43;;;;;;;7.27;7.07;;;18.10;99.90;;;;;;5026793;28;20479;-70
2023/08/02 08:07:11;;;;;;;7.80;7.50;;;18.20;99.90;;;;;;5025432;28;20974;-70
2023/08/02 08:09:38;;;;;;;8.83;8.43;;;18.50;99.90;;;;;;5017060;28;20492;-69
2023/08/02 08:12:06;;;;;;;8.60;8.30;;;18.50;99.90;;;;;;5018186;28;20464;-69
2023/08/02 08:14:34;;;;;;;8.73;8.43;;;18.60;99.90;;;;;;5025265;28;20469;-69
2023/08/02 08:17:02;;;;;;;8.13;7.83;;;18.60;99.90;;;;;;5025523;28;20464;-69
2023/08/02 08:19:29;;;;;;;8.73;8.43;;;18.60;99.90;;;;;;5026788;28;20460;-69
2023/08/02 08:21:56;;;;;;;8.60;8.30;;;18.70;99.90;;;;;;5021452;28;20817;-70
2023/08/02 08:24:23;;;;;;;8.10;7.80;;;18.70;99.90;;;;;;5027357;28;20820;-69
2023/08/02 08:26:50;;;;;;;9.40;9.03;;;18.80;99.90;;;;;;5021571;28;20475;-67
2023/08/02 08:29:17;;;;;;;10.80;10.40;;;18.80;99.90;;;;;;5020234;28;21190;-68
2023/08/02 08:31:46;;;;;;;11.73;11.23;;;18.80;99.90;;;;;;5026329;28;20464;-67
2023/08/02 08:34:13;;;;;;;10.70;10.30;;;18.80;99.90;;;;;;5025517;28;20680;-67
2023/08/02 08:36:40;;;;;;;10.33;9.93;;;18.70;99.90;;;;;;5022912;28;20497;-67
2023/08/02 08:39:08;;;;;;;9.40;9.10;;;18.60;99.90;;;;;;5023243;28;20453;-68
2023/08/02 08:41:35;;;;;;;9.73;9.33;;;18.60;99.90;;;;;;5026776;28;20453;-68
2023/08/02 08:44:02;;;;;;;9.07;8.77;;;18.70;99.90;;;;;;5015657;28;20518;-68
2023/08/02 08:46:32;;;;;;;9.00;8.50;;;18.70;99.90;;;;;;5019284;28;20465;-69
2023/08/02 08:49:01;;;;;;;8.60;8.20;;;18.80;99.90;;;;;;5023108;28;20775;-68
2023/08/02 08:51:29;;;;;;;8.27;7.97;;;18.80;99.90;;;;;;5022782;28;20470;-68
2023/08/02 08:54:01;;;;;;;8.67;8.37;;;18.80;99.90;;;;;;5025706;28;20556;-68
2023/08/02 08:56:28;;;;;;;8.40;8.10;;;18.70;99.90;;;;;;5026078;28;20550;-68
2023/08/02 08:58:59;;;;;;;8.93;8.63;;;18.70;99.90;;;;;;5021591;28;20464;-69
2023/08/02 09:01:27;;;;;;;8.40;8.10;;;18.60;99.90;;;;;;5017286;28;20840;-68
2023/08/02 09:03:53;;;;;;;7.70;7.40;;;18.70;99.90;;;;;;5012814;28;21019;-69
2023/08/02 09:06:23;;;;;;;7.00;6.80;;;18.70;99.90;;;;;;5021890;28;20488;-69
2023/08/02 09:08:50;;;;;;;6.70;6.50;;;18.90;99.90;;;;;;5023352;28;20819;-68
2023/08/02 09:11:17;;;;;;;8.53;7.70;;;19.20;99.90;;;;;;5015601;28;20894;-67
2023/08/02 09:13:44;;;;;;;5.50;5.40;;;19.40;99.90;;;;;;5025464;28;20761;-68
2023/08/02 09:16:12;;;;;;;5.10;5.00;;;19.60;99.90;;;;;;5026250;28;20472;-68
2023/08/02 09:18:41;;;;;;;4.77;4.67;;;19.70;99.90;;;;;;5018304;28;20487;-70
2023/08/02 09:21:09;;;;;;;4.70;4.30;;;19.80;99.90;;;;;;5022518;28;20468;-68
2023/08/02 09:23:37;;;;;;;3.90;3.80;;;20.10;99.90;;;;;;5023416;28;20472;-68
2023/08/02 09:26:12;;;;;;;4.80;4.70;;;20.20;99.90;;;;;;5021067;28;20862;-70
2023/08/02 09:28:39;;;;;;;4.63;4.53;;;20.50;99.90;;;;;;5016697;28;20526;-70
2023/08/02 09:31:17;;;;;;;5.50;5.40;;;20.60;99.90;;;;;;5026381;28;20497;-69
2023/08/02 09:33:52;;;;;;;5.97;5.77;;;20.70;99.90;;;;;;5028829;28;20457;-69
2023/08/02 09:36:23;;;;;;;6.70;6.50;;;20.70;99.90;;;;;;5024060;28;20519;-69
2023/08/02 09:39:03;;;;;;;6.50;6.30;;;20.70;99.90;;;;;;5020856;28;20978;-68
2023/08/02 09:41:32;;;;;;;7.10;6.90;;;20.70;99.90;;;;;;5020675;28;20453;-68
2023/08/02 09:43:59;;;;;;;6.97;6.77;;;20.70;99.90;;;;;;5029638;28;20469;-68
2023/08/02 09:46:29;;;;;;;7.70;7.50;;;20.70;99.90;;;;;;5026849;28;20912;-69
2023/08/02 09:48:56;;;;;;;7.40;7.20;;;20.60;99.90;;;;;;5026547;28;20704;-69
2023/08/02 09:51:39;;;;;;;7.23;7.03;;;20.60;99.90;;;;;;5022170;28;20460;-68
2023/08/02 09:54:08;;;;;;;6.43;6.23;;;20.50;99.90;;;;;;5021872;28;20919;-68
2023/08/02 09:56:36;;;;;;;7.00;6.80;;;20.50;99.90;;;;;;5020971;28;20882;-70
2023/08/02 09:59:04;;;;;;;6.53;6.33;;;20.50;99.90;;;;;;5026158;28;20955;-69
2023/08/02 10:01:32;;;;;;;7.00;6.80;;;20.70;99.90;;;;;;5028681;28;20484;-69
2023/08/02 10:04:04;;;;;;;6.80;6.60;;;20.80;99.90;;;;;;5028031;28;20465;-69
2023/08/02 10:06:34;;;;;;;7.50;7.30;;;21.10;99.90;;;;;;5028731;28;20559;-69
2023/08/02 10:09:05;;;;;;;7.40;7.20;;;21.60;99.90;;;;;;5028980;28;20492;-69
2023/08/02 10:11:35;;;;;;;8.70;8.40;;;22.20;99.90;;;;;;5019490;28;20468;-68
2023/08/02 10:14:03;;;;;;;10.40;10.00;;;23.40;99.90;;;;;;5022206;28;20526;-69
2023/08/02 10:16:31;;;;;;;11.00;10.60;;;24.00;99.90;;;;;;5028519;28;20507;-70
2023/08/02 10:19:01;;;;;;;12.20;11.70;;;23.90;99.90;;;;;;5029318;28;20822;-69
2023/08/02 10:21:28;;;;;;;12.10;11.60;;;24.30;99.90;;;;;;5022178;28;20501;-69
2023/08/02 10:23:58;;;;;;;12.40;11.90;;;24.10;99.90;;;;;;5020930;28;20503;-69
2023/08/02 10:26:27;;;;;;;11.40;11.00;;;23.90;99.90;;;;;;5022163;28;20472;-69
2023/08/02 10:28:57;;;;;;;13.00;12.50;;;24.70;99.90;;;;;;5024834;28;20487;-69
2023/08/02 10:31:24;;;;;;;12.73;12.23;;;25.50;99.90;;;;;;5027987;28;21048;-70
2023/08/02 10:33:51;;;;;;;13.20;12.67;;;25.60;99.90;;;;;;5016158;28;20460;-69
2023/08/02 10:36:18;;;;;;;14.17;13.57;;;25.90;99.90;;;;;;5024948;28;20489;-69
2023/08/02 10:38:52;;;;;;;14.73;14.03;;;26.10;99.90;;;;;;5027082;28;20886;-71
2023/08/02 10:41:21;;;;;;;14.33;13.73;;;26.40;99.90;;;;;;5027822;28;20441;-71
2023/08/02 10:44:19;;;;;;;14.07;13.47;;;26.50;99.90;;;;;;5025129;28;20559;-70
2023/08/02 10:46:45;;;;;;;14.70;14.10;;;26.00;99.90;;;;;;4982705;28;20513;-71
2023/08/02 10:49:38;;;;;;;14.27;13.60;;;25.50;99.90;;;;;;5018303;28;20787;-70
2023/08/02 10:52:24;;;;;;;14.27;13.67;;;25.00;99.90;;;;;;5020222;28;20518;-69
2023/08/02 10:55:05;;;;;;;14.00;13.40;;;24.80;99.90;;;;;;5022774;28;20899;-70
2023/08/02 10:57:32;;;;;;;14.10;13.50;;;25.00;99.90;;;;;;5022472;28;20464;-69
2023/08/02 11:00:01;;;;;;;14.67;14.00;;;25.10;99.90;;;;;;5020200;28;20862;-69
2023/08/02 11:02:46;;;;;;;13.67;13.07;;;24.60;99.90;;;;;;5027984;28;20460;-68
2023/08/02 11:05:16;;;;;;;19.60;18.30;;;24.50;99.90;;;;;;5028239;28;20481;-71
2023/08/02 11:07:43;;;;;;;15.43;14.63;;;23.50;99.90;;;;;;5026156;28;20791;-69
2023/08/02 11:10:10;;;;;;;13.70;13.10;;;22.90;99.90;;;;;;5023281;28;20591;-69
2023/08/02 11:12:37;;;;;;;13.90;13.30;;;22.30;99.90;;;;;;5024286;28;20469;-68
2023/08/02 11:15:16;;;;;;;11.20;10.80;;;21.90;99.90;;;;;;5027770;28;20481;-69
2023/08/02 11:17:44;;;;;;;11.83;10.43;;;21.90;99.90;;;;;;5015251;28;20468;-69
2023/08/02 11:20:14;;;;;;;9.30;9.00;;;21.90;99.90;;;;;;5028398;28;20464;-69
2023/08/02 11:22:41;;;;;;;7.47;7.27;;;21.90;99.90;;;;;;5028521;28;20449;-68
2023/08/02 11:25:09;;;;;;;6.60;6.40;;;21.80;99.90;;;;;;5028514;28;20464;-69
2023/08/02 11:27:36;;;;;;;5.50;5.20;;;21.90;99.90;;;;;;5022417;28;21097;-68
2023/08/02 11:30:07;;;;;;;4.80;4.70;;;22.00;99.90;;;;;;5021407;28;21025;-68
2023/08/02 11:32:36;;;;;;;6.20;6.00;;;22.30;99.90;;;;;;5016779;28;20501;-68
2023/08/02 11:35:03;;;;;;;8.40;8.10;;;22.70;99.90;;;;;;5028170;28;20527;-69
2023/08/02 11:37:30;;;;;;;9.30;9.00;;;23.20;99.90;;;;;;5028098;28;20518;-69
2023/08/02 11:39:58;;;;;;;11.20;10.80;;;23.40;99.90;;;;;;5025662;28;20456;-69
2023/08/02 11:42:28;;;;;;;9.40;9.10;;;23.40;99.90;;;;;;5022227;28;20445;-70
2023/08/02 11:44:56;;;;;;;11.87;11.37;;;23.50;99.90;;;;;;5028217;28;20496;-68
2023/08/02 11:47:34;;;;;;;12.40;11.90;;;23.50;99.90;;;;;;5025703;28;20889;-68
2023/08/02 11:50:03;;;;;;;12.80;12.30;;;23.50;99.90;;;;;;5017979;28;20496;-70
2023/08/02 11:52:31;;;;;;;14.30;13.43;;;23.50;99.90;;;;;;5027843;28;20461;-69
2023/08/02 11:54:58;;;;;;;13.00;12.50;;;23.30;99.90;;;;;;5026689;28;20461;-69
2023/08/02 11:57:27;;;;;;;11.90;11.40;;;23.30;99.90;;;;;;5024869;28;20468;-68
2023/08/02 11:59:56;;;;;;;12.80;12.30;;;23.20;99.90;;;;;;5019745;28;21128;-68
2023/08/02 12:02:26;;;;;;;13.03;12.53;;;22.90;99.90;;;;;;5017038;28;20466;-67
2023/08/02 12:04:53;;;;;;;16.20;15.30;;;22.40;99.90;;;;;;5027519;28;20483;-68
2023/08/02 12:07:27;;;;;;;13.53;12.93;;;22.00;99.90;;;;;;5022460;28;20468;-69
2023/08/02 12:09:54;;;;;;;10.77;9.80;;;21.50;99.90;;;;;;5021733;28;20504;-70
2023/08/02 12:12:22;;;;;;;8.47;8.17;;;21.10;99.90;;;;;;5020338;28;20497;-70
2023/08/02 12:14:49;;;;;;;5.77;5.57;;;20.70;99.90;;;;;;5026761;28;20484;-71
2023/08/02 12:17:28;;;;;;;3.80;3.60;;;20.60;99.90;;;;;;5112203;27;20771;-69
2023/08/02 12:19:54;;;;;;;3.07;2.97;;;20.90;99.90;;;;;;5121050;28;20444;-69
2023/08/02 12:22:22;;;;;;;4.20;4.10;;;21.30;99.90;;;;;;5124850;28;20459;-67
2023/08/02 12:25:04;;;;;;;3.90;3.80;;;21.60;99.90;;;;;;5120352;27;20463;-69
2023/08/02 12:27:31;;;;;;;5.07;4.87;;;21.90;99.90;;;;;;5112163;28;20538;-71
2023/08/02 12:30:09;;;;;;;6.40;6.20;;;21.70;99.90;;;;;;5121976;27;20444;-69
2023/08/02 12:32:38;;;;;;;8.83;8.40;;;21.50;99.90;;;;;;5117003;28;20462;-69
2023/08/02 12:35:07;;;;;;;8.43;8.13;;;21.20;99.90;;;;;;5120394;28;20509;-69
2023/08/02 12:37:34;;;;;;;7.10;6.80;;;21.20;99.90;;;;;;5124228;28;20448;-71
2023/08/02 12:40:01;;;;;;;7.53;7.23;;;21.50;99.90;;;;;;5112636;28;20977;-69
2023/08/02 12:42:28;;;;;;;9.43;9.03;;;22.60;99.90;;;;;;5117222;28;20553;-70
2023/08/02 12:44:56;;;;;;;12.07;11.57;;;23.50;99.90;;;;;;5122071;28;20819;-69
2023/08/02 12:47:23;;;;;;;13.07;12.37;;;23.60;99.90;;;;;;5124235;27;20457;-69
2023/08/02 12:49:52;;;;;;;14.70;13.80;;;23.70;99.90;;;;;;5116597;28;20464;-68